<?xml version="1.0" encoding="UTF-8" standalone="no" ?>
<gpx xmlns="http://www.topografix.com/GPX/1/1" xmlns:xsi="http://www.w3.org/2001/XMLSchema-instance" xsi:schemaLocation="http://www.topografix.com/GPX/1/1 http://www.topografix.com/GPX/1/1/gpx.xsd" version="1.1" creator="VisuGPX - https://www.visugpx.com">
  <metadata>
    <name>Randonnée Gardiole Sud - La Dévese</name>
  </metadata>
  <trk>
    <name><![CDATA[Randonnée du 30/10/2021 à 13:50]]></name>
    <trkseg>
      <trkpt lat="43.47834" lon="3.69863">
        <ele>28</ele>
        <time>2021-10-30T13:50:16+02:00</time>
      </trkpt>
      <trkpt lat="43.47812" lon="3.69855">
        <ele>23</ele>
        <time>2021-10-30T13:50:46+02:00</time>
      </trkpt>
      <trkpt lat="43.47797" lon="3.69879">
        <ele>20</ele>
        <time>2021-10-30T13:51:09+02:00</time>
      </trkpt>
      <trkpt lat="43.47787" lon="3.69907">
        <ele>19</ele>
        <time>2021-10-30T13:51:27+02:00</time>
      </trkpt>
      <trkpt lat="43.47781" lon="3.69938">
        <ele>16</ele>
        <time>2021-10-30T13:51:47+02:00</time>
      </trkpt>
      <trkpt lat="43.47773" lon="3.69969">
        <ele>20</ele>
        <time>2021-10-30T13:52:04+02:00</time>
      </trkpt>
      <trkpt lat="43.47771" lon="3.70043">
        <ele>20</ele>
        <time>2021-10-30T13:52:56+02:00</time>
      </trkpt>
      <trkpt lat="43.4777" lon="3.70076">
        <ele>17</ele>
        <time>2021-10-30T13:53:18+02:00</time>
      </trkpt>
      <trkpt lat="43.47762" lon="3.70106">
        <ele>17</ele>
        <time>2021-10-30T13:53:41+02:00</time>
      </trkpt>
      <trkpt lat="43.47754" lon="3.70175">
        <ele>22</ele>
        <time>2021-10-30T13:54:29+02:00</time>
      </trkpt>
      <trkpt lat="43.4775" lon="3.70205">
        <ele>19</ele>
        <time>2021-10-30T13:54:45+02:00</time>
      </trkpt>
      <trkpt lat="43.47739" lon="3.70236">
        <ele>18</ele>
        <time>2021-10-30T13:54:59+02:00</time>
      </trkpt>
      <trkpt lat="43.47726" lon="3.70263">
        <ele>22</ele>
        <time>2021-10-30T13:55:11+02:00</time>
      </trkpt>
      <trkpt lat="43.47717" lon="3.70291">
        <ele>24</ele>
        <time>2021-10-30T13:55:30+02:00</time>
      </trkpt>
      <trkpt lat="43.47716" lon="3.70323">
        <ele>25</ele>
        <time>2021-10-30T13:55:47+02:00</time>
      </trkpt>
      <trkpt lat="43.47702" lon="3.70378">
        <ele>33</ele>
        <time>2021-10-30T13:56:25+02:00</time>
      </trkpt>
      <trkpt lat="43.47684" lon="3.70401">
        <ele>32</ele>
        <time>2021-10-30T13:56:46+02:00</time>
      </trkpt>
      <trkpt lat="43.47671" lon="3.70427">
        <ele>34</ele>
        <time>2021-10-30T13:56:56+02:00</time>
      </trkpt>
      <trkpt lat="43.47664" lon="3.70457">
        <ele>37</ele>
        <time>2021-10-30T13:57:12+02:00</time>
      </trkpt>
      <trkpt lat="43.47657" lon="3.70487">
        <ele>43</ele>
        <time>2021-10-30T13:57:31+02:00</time>
      </trkpt>
      <trkpt lat="43.47672" lon="3.70568">
        <ele>35</ele>
        <time>2021-10-30T13:58:29+02:00</time>
      </trkpt>
      <trkpt lat="43.47695" lon="3.70571">
        <ele>38</ele>
        <time>2021-10-30T13:58:56+02:00</time>
      </trkpt>
      <trkpt lat="43.47712" lon="3.70592">
        <ele>39</ele>
        <time>2021-10-30T13:59:18+02:00</time>
      </trkpt>
      <trkpt lat="43.47728" lon="3.70687">
        <ele>30</ele>
        <time>2021-10-30T14:00:18+02:00</time>
      </trkpt>
      <trkpt lat="43.47733" lon="3.70718">
        <ele>32</ele>
        <time>2021-10-30T14:00:35+02:00</time>
      </trkpt>
      <trkpt lat="43.47724" lon="3.70747">
        <ele>43</ele>
        <time>2021-10-30T14:00:51+02:00</time>
      </trkpt>
      <trkpt lat="43.47702" lon="3.70756">
        <ele>51</ele>
        <time>2021-10-30T14:01:13+02:00</time>
      </trkpt>
      <trkpt lat="43.47534" lon="3.70761">
        <ele>63</ele>
        <time>2021-10-30T14:03:22+02:00</time>
      </trkpt>
      <trkpt lat="43.47512" lon="3.70757">
        <ele>58</ele>
        <time>2021-10-30T14:04:05+02:00</time>
      </trkpt>
      <trkpt lat="43.47488" lon="3.70758">
        <ele>52</ele>
        <time>2021-10-30T14:04:24+02:00</time>
      </trkpt>
      <trkpt lat="43.47465" lon="3.70766">
        <ele>52</ele>
        <time>2021-10-30T14:05:04+02:00</time>
      </trkpt>
      <trkpt lat="43.47442" lon="3.70759">
        <ele>48</ele>
        <time>2021-10-30T14:05:23+02:00</time>
      </trkpt>
      <trkpt lat="43.47423" lon="3.70741">
        <ele>46</ele>
        <time>2021-10-30T14:05:41+02:00</time>
      </trkpt>
      <trkpt lat="43.47407" lon="3.70715">
        <ele>52</ele>
        <time>2021-10-30T14:06:00+02:00</time>
      </trkpt>
      <trkpt lat="43.47391" lon="3.70693">
        <ele>59</ele>
        <time>2021-10-30T14:06:16+02:00</time>
      </trkpt>
      <trkpt lat="43.4737" lon="3.70684">
        <ele>61</ele>
        <time>2021-10-30T14:06:36+02:00</time>
      </trkpt>
      <trkpt lat="43.47358" lon="3.70711">
        <ele>54</ele>
        <time>2021-10-30T14:07:01+02:00</time>
      </trkpt>
      <trkpt lat="43.47344" lon="3.70737">
        <ele>52</ele>
        <time>2021-10-30T14:07:20+02:00</time>
      </trkpt>
      <trkpt lat="43.4733" lon="3.70763">
        <ele>52</ele>
        <time>2021-10-30T14:07:41+02:00</time>
      </trkpt>
      <trkpt lat="43.47329" lon="3.70766">
        <ele>52</ele>
        <time>2021-10-30T14:08:03+02:00</time>
      </trkpt>
      <trkpt lat="43.4731" lon="3.70788">
        <ele>54</ele>
        <time>2021-10-30T14:08:21+02:00</time>
      </trkpt>
      <trkpt lat="43.47294" lon="3.70809">
        <ele>51</ele>
        <time>2021-10-30T14:08:38+02:00</time>
      </trkpt>
      <trkpt lat="43.47283" lon="3.70839">
        <ele>63</ele>
        <time>2021-10-30T14:08:51+02:00</time>
      </trkpt>
      <trkpt lat="43.47274" lon="3.70868">
        <ele>77</ele>
        <time>2021-10-30T14:09:10+02:00</time>
      </trkpt>
      <trkpt lat="43.47262" lon="3.70895">
        <ele>91</ele>
        <time>2021-10-30T14:10:02+02:00</time>
      </trkpt>
      <trkpt lat="43.47242" lon="3.70914">
        <ele>92</ele>
        <time>2021-10-30T14:10:05+02:00</time>
      </trkpt>
      <trkpt lat="43.47222" lon="3.70901">
        <ele>89</ele>
        <time>2021-10-30T14:10:32+02:00</time>
      </trkpt>
      <trkpt lat="43.47202" lon="3.70885">
        <ele>90</ele>
        <time>2021-10-30T14:10:47+02:00</time>
      </trkpt>
      <trkpt lat="43.47182" lon="3.70897">
        <ele>100</ele>
        <time>2021-10-30T14:12:14+02:00</time>
      </trkpt>
      <trkpt lat="43.47158" lon="3.70917">
        <ele>101</ele>
        <time>2021-10-30T14:12:22+02:00</time>
      </trkpt>
      <trkpt lat="43.47129" lon="3.70925">
        <ele>100</ele>
        <time>2021-10-30T14:12:25+02:00</time>
      </trkpt>
      <trkpt lat="43.47107" lon="3.70924">
        <ele>96</ele>
        <time>2021-10-30T14:12:50+02:00</time>
      </trkpt>
      <trkpt lat="43.47083" lon="3.70921">
        <ele>98</ele>
        <time>2021-10-30T14:13:06+02:00</time>
      </trkpt>
      <trkpt lat="43.47062" lon="3.70932">
        <ele>105</ele>
        <time>2021-10-30T14:13:24+02:00</time>
      </trkpt>
      <trkpt lat="43.47044" lon="3.70952">
        <ele>108</ele>
        <time>2021-10-30T14:13:42+02:00</time>
      </trkpt>
      <trkpt lat="43.47031" lon="3.70955">
        <ele>108</ele>
        <time>2021-10-30T14:14:36+02:00</time>
      </trkpt>
      <trkpt lat="43.47019" lon="3.70983">
        <ele>108</ele>
        <time>2021-10-30T14:14:37+02:00</time>
      </trkpt>
      <trkpt lat="43.46996" lon="3.71006">
        <ele>109</ele>
        <time>2021-10-30T14:14:41+02:00</time>
      </trkpt>
      <trkpt lat="43.46976" lon="3.71025">
        <ele>103</ele>
        <time>2021-10-30T14:14:51+02:00</time>
      </trkpt>
      <trkpt lat="43.46961" lon="3.71048">
        <ele>95</ele>
        <time>2021-10-30T14:15:04+02:00</time>
      </trkpt>
      <trkpt lat="43.46949" lon="3.71075">
        <ele>95</ele>
        <time>2021-10-30T14:15:18+02:00</time>
      </trkpt>
      <trkpt lat="43.46946" lon="3.71107">
        <ele>95</ele>
        <time>2021-10-30T14:15:37+02:00</time>
      </trkpt>
      <trkpt lat="43.46927" lon="3.71126">
        <ele>98</ele>
        <time>2021-10-30T14:16:01+02:00</time>
      </trkpt>
      <trkpt lat="43.46904" lon="3.71121">
        <ele>90</ele>
        <time>2021-10-30T14:16:32+02:00</time>
      </trkpt>
      <trkpt lat="43.46883" lon="3.71133">
        <ele>104</ele>
        <time>2021-10-30T14:16:56+02:00</time>
      </trkpt>
      <trkpt lat="43.4686" lon="3.71133">
        <ele>96</ele>
        <time>2021-10-30T14:17:16+02:00</time>
      </trkpt>
      <trkpt lat="43.46839" lon="3.7112">
        <ele>90</ele>
        <time>2021-10-30T14:17:43+02:00</time>
      </trkpt>
      <trkpt lat="43.46816" lon="3.71123">
        <ele>87</ele>
        <time>2021-10-30T14:18:36+02:00</time>
      </trkpt>
      <trkpt lat="43.46792" lon="3.71139">
        <ele>87</ele>
        <time>2021-10-30T14:18:40+02:00</time>
      </trkpt>
      <trkpt lat="43.4677" lon="3.71143">
        <ele>87</ele>
        <time>2021-10-30T14:18:52+02:00</time>
      </trkpt>
      <trkpt lat="43.46747" lon="3.71147">
        <ele>97</ele>
        <time>2021-10-30T14:19:12+02:00</time>
      </trkpt>
      <trkpt lat="43.46724" lon="3.71152">
        <ele>101</ele>
        <time>2021-10-30T14:19:34+02:00</time>
      </trkpt>
      <trkpt lat="43.46719" lon="3.71153">
        <ele>101</ele>
        <time>2021-10-30T14:20:00+02:00</time>
      </trkpt>
      <trkpt lat="43.46696" lon="3.71159">
        <ele>90</ele>
        <time>2021-10-30T14:20:26+02:00</time>
      </trkpt>
      <trkpt lat="43.46681" lon="3.71182">
        <ele>71</ele>
        <time>2021-10-30T14:20:47+02:00</time>
      </trkpt>
      <trkpt lat="43.46662" lon="3.71199">
        <ele>65</ele>
        <time>2021-10-30T14:21:04+02:00</time>
      </trkpt>
      <trkpt lat="43.46654" lon="3.71229">
        <ele>94</ele>
        <time>2021-10-30T14:21:29+02:00</time>
      </trkpt>
      <trkpt lat="43.46637" lon="3.71248">
        <ele>100</ele>
        <time>2021-10-30T14:21:44+02:00</time>
      </trkpt>
      <trkpt lat="43.46628" lon="3.71249">
        <ele>96</ele>
        <time>2021-10-30T14:23:33+02:00</time>
      </trkpt>
      <trkpt lat="43.46607" lon="3.71264">
        <ele>96</ele>
        <time>2021-10-30T14:23:36+02:00</time>
      </trkpt>
      <trkpt lat="43.46584" lon="3.71264">
        <ele>93</ele>
        <time>2021-10-30T14:24:16+02:00</time>
      </trkpt>
      <trkpt lat="43.46561" lon="3.71257">
        <ele>87</ele>
        <time>2021-10-30T14:24:38+02:00</time>
      </trkpt>
      <trkpt lat="43.46558" lon="3.71257">
        <ele>86</ele>
        <time>2021-10-30T14:24:43+02:00</time>
      </trkpt>
      <trkpt lat="43.46537" lon="3.71242">
        <ele>86</ele>
        <time>2021-10-30T14:25:04+02:00</time>
      </trkpt>
      <trkpt lat="43.46514" lon="3.71242">
        <ele>92</ele>
        <time>2021-10-30T14:25:22+02:00</time>
      </trkpt>
      <trkpt lat="43.46513" lon="3.71249">
        <ele>84</ele>
        <time>2021-10-30T14:26:00+02:00</time>
      </trkpt>
      <trkpt lat="43.46492" lon="3.71239">
        <ele>84</ele>
        <time>2021-10-30T14:26:23+02:00</time>
      </trkpt>
      <trkpt lat="43.46471" lon="3.71224">
        <ele>87</ele>
        <time>2021-10-30T14:26:54+02:00</time>
      </trkpt>
      <trkpt lat="43.46449" lon="3.71214">
        <ele>90</ele>
        <time>2021-10-30T14:27:19+02:00</time>
      </trkpt>
      <trkpt lat="43.46427" lon="3.71207">
        <ele>98</ele>
        <time>2021-10-30T14:27:44+02:00</time>
      </trkpt>
      <trkpt lat="43.46297" lon="3.7115">
        <ele>91</ele>
        <time>2021-10-30T14:30:44+02:00</time>
      </trkpt>
      <trkpt lat="43.46319" lon="3.71146">
        <ele>198</ele>
        <time>2021-10-30T14:30:46+02:00</time>
      </trkpt>
      <trkpt lat="43.46287" lon="3.71166">
        <ele>198</ele>
        <time>2021-10-30T14:30:47+02:00</time>
      </trkpt>
      <trkpt lat="43.46266" lon="3.71185">
        <ele>199</ele>
        <time>2021-10-30T14:30:53+02:00</time>
      </trkpt>
      <trkpt lat="43.46244" lon="3.71183">
        <ele>191</ele>
        <time>2021-10-30T14:31:02+02:00</time>
      </trkpt>
      <trkpt lat="43.4622" lon="3.71187">
        <ele>171</ele>
        <time>2021-10-30T14:31:29+02:00</time>
      </trkpt>
      <trkpt lat="43.46213" lon="3.71182">
        <ele>155</ele>
        <time>2021-10-30T14:32:03+02:00</time>
      </trkpt>
      <trkpt lat="43.46191" lon="3.71176">
        <ele>147</ele>
        <time>2021-10-30T14:32:16+02:00</time>
      </trkpt>
      <trkpt lat="43.46168" lon="3.71182">
        <ele>143</ele>
        <time>2021-10-30T14:32:44+02:00</time>
      </trkpt>
      <trkpt lat="43.4615" lon="3.71202">
        <ele>138</ele>
        <time>2021-10-30T14:33:12+02:00</time>
      </trkpt>
      <trkpt lat="43.46091" lon="3.71274">
        <ele>136</ele>
        <time>2021-10-30T14:35:07+02:00</time>
      </trkpt>
      <trkpt lat="43.45962" lon="3.71478">
        <ele>143</ele>
        <time>2021-10-30T14:39:56+02:00</time>
      </trkpt>
      <trkpt lat="43.45986" lon="3.71463">
        <ele>141</ele>
        <time>2021-10-30T14:39:57+02:00</time>
      </trkpt>
      <trkpt lat="43.45976" lon="3.71425">
        <ele>140</ele>
        <time>2021-10-30T14:39:58+02:00</time>
      </trkpt>
      <trkpt lat="43.4597" lon="3.71381">
        <ele>140</ele>
        <time>2021-10-30T14:39:59+02:00</time>
      </trkpt>
      <trkpt lat="43.45943" lon="3.71296">
        <ele>139</ele>
        <time>2021-10-30T14:40:01+02:00</time>
      </trkpt>
      <trkpt lat="43.45927" lon="3.71273">
        <ele>149</ele>
        <time>2021-10-30T14:40:43+02:00</time>
      </trkpt>
      <trkpt lat="43.4592" lon="3.71242">
        <ele>159</ele>
        <time>2021-10-30T14:41:07+02:00</time>
      </trkpt>
      <trkpt lat="43.45918" lon="3.71214">
        <ele>161</ele>
        <time>2021-10-30T14:42:16+02:00</time>
      </trkpt>
      <trkpt lat="43.459" lon="3.71184">
        <ele>161</ele>
        <time>2021-10-30T14:42:17+02:00</time>
      </trkpt>
      <trkpt lat="43.45884" lon="3.71157">
        <ele>161</ele>
        <time>2021-10-30T14:42:19+02:00</time>
      </trkpt>
      <trkpt lat="43.45864" lon="3.71142">
        <ele>162</ele>
        <time>2021-10-30T14:42:58+02:00</time>
      </trkpt>
      <trkpt lat="43.4584" lon="3.71143">
        <ele>161</ele>
        <time>2021-10-30T14:43:16+02:00</time>
      </trkpt>
      <trkpt lat="43.45821" lon="3.7116">
        <ele>161</ele>
        <time>2021-10-30T14:43:39+02:00</time>
      </trkpt>
      <trkpt lat="43.45819" lon="3.71193">
        <ele>168</ele>
        <time>2021-10-30T14:43:54+02:00</time>
      </trkpt>
      <trkpt lat="43.45809" lon="3.71222">
        <ele>173</ele>
        <time>2021-10-30T14:44:11+02:00</time>
      </trkpt>
      <trkpt lat="43.45799" lon="3.71237">
        <ele>163</ele>
        <time>2021-10-30T14:44:38+02:00</time>
      </trkpt>
      <trkpt lat="43.45811" lon="3.71209">
        <ele>170</ele>
        <time>2021-10-30T14:44:59+02:00</time>
      </trkpt>
      <trkpt lat="43.45822" lon="3.71181">
        <ele>173</ele>
        <time>2021-10-30T14:45:15+02:00</time>
      </trkpt>
      <trkpt lat="43.45817" lon="3.7115">
        <ele>170</ele>
        <time>2021-10-30T14:45:38+02:00</time>
      </trkpt>
      <trkpt lat="43.45815" lon="3.71145">
        <ele>170</ele>
        <time>2021-10-30T14:46:11+02:00</time>
      </trkpt>
      <trkpt lat="43.45805" lon="3.71114">
        <ele>170</ele>
        <time>2021-10-30T14:46:13+02:00</time>
      </trkpt>
      <trkpt lat="43.45785" lon="3.71098">
        <ele>169</ele>
        <time>2021-10-30T14:46:24+02:00</time>
      </trkpt>
      <trkpt lat="43.45761" lon="3.71104">
        <ele>167</ele>
        <time>2021-10-30T14:46:36+02:00</time>
      </trkpt>
      <trkpt lat="43.45739" lon="3.71112">
        <ele>160</ele>
        <time>2021-10-30T14:46:56+02:00</time>
      </trkpt>
      <trkpt lat="43.45721" lon="3.71133">
        <ele>158</ele>
        <time>2021-10-30T14:47:12+02:00</time>
      </trkpt>
      <trkpt lat="43.45717" lon="3.71136">
        <ele>157</ele>
        <time>2021-10-30T14:47:44+02:00</time>
      </trkpt>
      <trkpt lat="43.45703" lon="3.71165">
        <ele>157</ele>
        <time>2021-10-30T14:47:46+02:00</time>
      </trkpt>
      <trkpt lat="43.45692" lon="3.71194">
        <ele>159</ele>
        <time>2021-10-30T14:48:13+02:00</time>
      </trkpt>
      <trkpt lat="43.45689" lon="3.71225">
        <ele>152</ele>
        <time>2021-10-30T14:48:30+02:00</time>
      </trkpt>
      <trkpt lat="43.4569" lon="3.71261">
        <ele>152</ele>
        <time>2021-10-30T14:49:26+02:00</time>
      </trkpt>
      <trkpt lat="43.45713" lon="3.71319">
        <ele>152</ele>
        <time>2021-10-30T14:49:27+02:00</time>
      </trkpt>
      <trkpt lat="43.45731" lon="3.71339">
        <ele>150</ele>
        <time>2021-10-30T14:49:36+02:00</time>
      </trkpt>
      <trkpt lat="43.45755" lon="3.71346">
        <ele>149</ele>
        <time>2021-10-30T14:49:53+02:00</time>
      </trkpt>
      <trkpt lat="43.45777" lon="3.71356">
        <ele>151</ele>
        <time>2021-10-30T14:50:10+02:00</time>
      </trkpt>
      <trkpt lat="43.45799" lon="3.71365">
        <ele>147</ele>
        <time>2021-10-30T14:50:27+02:00</time>
      </trkpt>
      <trkpt lat="43.45822" lon="3.71371">
        <ele>146</ele>
        <time>2021-10-30T14:50:43+02:00</time>
      </trkpt>
      <trkpt lat="43.45845" lon="3.71377">
        <ele>145</ele>
        <time>2021-10-30T14:51:01+02:00</time>
      </trkpt>
      <trkpt lat="43.45867" lon="3.71386">
        <ele>141</ele>
        <time>2021-10-30T14:51:18+02:00</time>
      </trkpt>
      <trkpt lat="43.4589" lon="3.71392">
        <ele>147</ele>
        <time>2021-10-30T14:51:36+02:00</time>
      </trkpt>
      <trkpt lat="43.45914" lon="3.71401">
        <ele>151</ele>
        <time>2021-10-30T14:51:55+02:00</time>
      </trkpt>
      <trkpt lat="43.45965" lon="3.71452">
        <ele>126</ele>
        <time>2021-10-30T14:52:46+02:00</time>
      </trkpt>
      <trkpt lat="43.45969" lon="3.71483">
        <ele>126</ele>
        <time>2021-10-30T14:53:03+02:00</time>
      </trkpt>
      <trkpt lat="43.4597" lon="3.71515">
        <ele>125</ele>
        <time>2021-10-30T14:53:18+02:00</time>
      </trkpt>
      <trkpt lat="43.45979" lon="3.71544">
        <ele>126</ele>
        <time>2021-10-30T14:53:35+02:00</time>
      </trkpt>
      <trkpt lat="43.45993" lon="3.7157">
        <ele>122</ele>
        <time>2021-10-30T14:53:51+02:00</time>
      </trkpt>
      <trkpt lat="43.46001" lon="3.71599">
        <ele>115</ele>
        <time>2021-10-30T14:54:10+02:00</time>
      </trkpt>
      <trkpt lat="43.46003" lon="3.71631">
        <ele>117</ele>
        <time>2021-10-30T14:54:26+02:00</time>
      </trkpt>
      <trkpt lat="43.46012" lon="3.71662">
        <ele>125</ele>
        <time>2021-10-30T14:54:43+02:00</time>
      </trkpt>
      <trkpt lat="43.4603" lon="3.71683">
        <ele>121</ele>
        <time>2021-10-30T14:55:02+02:00</time>
      </trkpt>
      <trkpt lat="43.46049" lon="3.71702">
        <ele>121</ele>
        <time>2021-10-30T14:55:17+02:00</time>
      </trkpt>
      <trkpt lat="43.46055" lon="3.71732">
        <ele>118</ele>
        <time>2021-10-30T14:55:34+02:00</time>
      </trkpt>
      <trkpt lat="43.46076" lon="3.71745">
        <ele>117</ele>
        <time>2021-10-30T14:55:52+02:00</time>
      </trkpt>
      <trkpt lat="43.46099" lon="3.71754">
        <ele>116</ele>
        <time>2021-10-30T14:56:08+02:00</time>
      </trkpt>
      <trkpt lat="43.46119" lon="3.7177">
        <ele>114</ele>
        <time>2021-10-30T14:56:28+02:00</time>
      </trkpt>
      <trkpt lat="43.46118" lon="3.71803">
        <ele>110</ele>
        <time>2021-10-30T14:57:35+02:00</time>
      </trkpt>
      <trkpt lat="43.46115" lon="3.71834">
        <ele>115</ele>
        <time>2021-10-30T14:58:01+02:00</time>
      </trkpt>
      <trkpt lat="43.46108" lon="3.71865">
        <ele>116</ele>
        <time>2021-10-30T14:58:20+02:00</time>
      </trkpt>
      <trkpt lat="43.46104" lon="3.71896">
        <ele>117</ele>
        <time>2021-10-30T14:58:37+02:00</time>
      </trkpt>
      <trkpt lat="43.46091" lon="3.71918">
        <ele>118</ele>
        <time>2021-10-30T14:58:54+02:00</time>
      </trkpt>
      <trkpt lat="43.46105" lon="3.71945">
        <ele>117</ele>
        <time>2021-10-30T14:59:44+02:00</time>
      </trkpt>
      <trkpt lat="43.46125" lon="3.71961">
        <ele>117</ele>
        <time>2021-10-30T15:00:05+02:00</time>
      </trkpt>
      <trkpt lat="43.4614" lon="3.71986">
        <ele>118</ele>
        <time>2021-10-30T15:00:20+02:00</time>
      </trkpt>
      <trkpt lat="43.46143" lon="3.72018">
        <ele>118</ele>
        <time>2021-10-30T15:00:40+02:00</time>
      </trkpt>
      <trkpt lat="43.46135" lon="3.72049">
        <ele>115</ele>
        <time>2021-10-30T15:00:57+02:00</time>
      </trkpt>
      <trkpt lat="43.45987" lon="3.72405">
        <ele>122</ele>
        <time>2021-10-30T15:04:52+02:00</time>
      </trkpt>
      <trkpt lat="43.45994" lon="3.72435">
        <ele>122</ele>
        <time>2021-10-30T15:05:24+02:00</time>
      </trkpt>
      <trkpt lat="43.46015" lon="3.7245">
        <ele>123</ele>
        <time>2021-10-30T15:05:45+02:00</time>
      </trkpt>
      <trkpt lat="43.46038" lon="3.72448">
        <ele>124</ele>
        <time>2021-10-30T15:06:05+02:00</time>
      </trkpt>
      <trkpt lat="43.46059" lon="3.72435">
        <ele>125</ele>
        <time>2021-10-30T15:06:23+02:00</time>
      </trkpt>
      <trkpt lat="43.46081" lon="3.72427">
        <ele>125</ele>
        <time>2021-10-30T15:06:43+02:00</time>
      </trkpt>
      <trkpt lat="43.46104" lon="3.72415">
        <ele>126</ele>
        <time>2021-10-30T15:06:57+02:00</time>
      </trkpt>
      <trkpt lat="43.46127" lon="3.72409">
        <ele>135</ele>
        <time>2021-10-30T15:07:18+02:00</time>
      </trkpt>
      <trkpt lat="43.46147" lon="3.72394">
        <ele>145</ele>
        <time>2021-10-30T15:07:36+02:00</time>
      </trkpt>
      <trkpt lat="43.46426" lon="3.72308">
        <ele>147</ele>
        <time>2021-10-30T15:12:04+02:00</time>
      </trkpt>
      <trkpt lat="43.46441" lon="3.72279">
        <ele>145</ele>
        <time>2021-10-30T15:12:08+02:00</time>
      </trkpt>
      <trkpt lat="43.4646" lon="3.72298">
        <ele>165</ele>
        <time>2021-10-30T15:12:52+02:00</time>
      </trkpt>
      <trkpt lat="43.46469" lon="3.72326">
        <ele>174</ele>
        <time>2021-10-30T15:13:17+02:00</time>
      </trkpt>
      <trkpt lat="43.4647" lon="3.72348">
        <ele>175</ele>
        <time>2021-10-30T15:14:06+02:00</time>
      </trkpt>
      <trkpt lat="43.46486" lon="3.72379">
        <ele>175</ele>
        <time>2021-10-30T15:14:07+02:00</time>
      </trkpt>
      <trkpt lat="43.46502" lon="3.72401">
        <ele>177</ele>
        <time>2021-10-30T15:14:19+02:00</time>
      </trkpt>
      <trkpt lat="43.46522" lon="3.72417">
        <ele>186</ele>
        <time>2021-10-30T15:15:26+02:00</time>
      </trkpt>
      <trkpt lat="43.46545" lon="3.72426">
        <ele>190</ele>
        <time>2021-10-30T15:15:47+02:00</time>
      </trkpt>
      <trkpt lat="43.46565" lon="3.72442">
        <ele>189</ele>
        <time>2021-10-30T15:16:08+02:00</time>
      </trkpt>
      <trkpt lat="43.46583" lon="3.72462">
        <ele>187</ele>
        <time>2021-10-30T15:16:28+02:00</time>
      </trkpt>
      <trkpt lat="43.46656" lon="3.72582">
        <ele>185</ele>
        <time>2021-10-30T15:18:21+02:00</time>
      </trkpt>
      <trkpt lat="43.46677" lon="3.72565">
        <ele>186</ele>
        <time>2021-10-30T15:18:22+02:00</time>
      </trkpt>
      <trkpt lat="43.46698" lon="3.72546">
        <ele>186</ele>
        <time>2021-10-30T15:18:26+02:00</time>
      </trkpt>
      <trkpt lat="43.46718" lon="3.72531">
        <ele>186</ele>
        <time>2021-10-30T15:18:31+02:00</time>
      </trkpt>
      <trkpt lat="43.46741" lon="3.72536">
        <ele>188</ele>
        <time>2021-10-30T15:18:56+02:00</time>
      </trkpt>
      <trkpt lat="43.46759" lon="3.72556">
        <ele>202</ele>
        <time>2021-10-30T15:19:13+02:00</time>
      </trkpt>
      <trkpt lat="43.46779" lon="3.7257">
        <ele>202</ele>
        <time>2021-10-30T15:19:33+02:00</time>
      </trkpt>
      <trkpt lat="43.46797" lon="3.72578">
        <ele>200</ele>
        <time>2021-10-30T15:20:23+02:00</time>
      </trkpt>
      <trkpt lat="43.46824" lon="3.72589">
        <ele>200</ele>
        <time>2021-10-30T15:20:25+02:00</time>
      </trkpt>
      <trkpt lat="43.46845" lon="3.72579">
        <ele>199</ele>
        <time>2021-10-30T15:20:36+02:00</time>
      </trkpt>
      <trkpt lat="43.46868" lon="3.72581">
        <ele>196</ele>
        <time>2021-10-30T15:20:57+02:00</time>
      </trkpt>
      <trkpt lat="43.46892" lon="3.72576">
        <ele>192</ele>
        <time>2021-10-30T15:21:10+02:00</time>
      </trkpt>
      <trkpt lat="43.46914" lon="3.72584">
        <ele>184</ele>
        <time>2021-10-30T15:21:27+02:00</time>
      </trkpt>
      <trkpt lat="43.47012" lon="3.72649">
        <ele>166</ele>
        <time>2021-10-30T15:23:06+02:00</time>
      </trkpt>
      <trkpt lat="43.47031" lon="3.72667">
        <ele>168</ele>
        <time>2021-10-30T15:23:35+02:00</time>
      </trkpt>
      <trkpt lat="43.47047" lon="3.72689">
        <ele>172</ele>
        <time>2021-10-30T15:23:52+02:00</time>
      </trkpt>
      <trkpt lat="43.47059" lon="3.72717">
        <ele>175</ele>
        <time>2021-10-30T15:24:14+02:00</time>
      </trkpt>
      <trkpt lat="43.4708" lon="3.72801">
        <ele>155</ele>
        <time>2021-10-30T15:25:15+02:00</time>
      </trkpt>
      <trkpt lat="43.47088" lon="3.7283">
        <ele>142</ele>
        <time>2021-10-30T15:26:13+02:00</time>
      </trkpt>
      <trkpt lat="43.47116" lon="3.72884">
        <ele>148</ele>
        <time>2021-10-30T15:28:36+02:00</time>
      </trkpt>
      <trkpt lat="43.47121" lon="3.72869">
        <ele>148</ele>
        <time>2021-10-30T15:29:57+02:00</time>
      </trkpt>
      <trkpt lat="43.47105" lon="3.72847">
        <ele>147</ele>
        <time>2021-10-30T15:30:38+02:00</time>
      </trkpt>
      <trkpt lat="43.47086" lon="3.72828">
        <ele>146</ele>
        <time>2021-10-30T15:30:58+02:00</time>
      </trkpt>
      <trkpt lat="43.4707" lon="3.72852">
        <ele>144</ele>
        <time>2021-10-30T15:31:20+02:00</time>
      </trkpt>
      <trkpt lat="43.4706" lon="3.72879">
        <ele>143</ele>
        <time>2021-10-30T15:31:35+02:00</time>
      </trkpt>
      <trkpt lat="43.47077" lon="3.72899">
        <ele>147</ele>
        <time>2021-10-30T15:32:40+02:00</time>
      </trkpt>
      <trkpt lat="43.47093" lon="3.72904">
        <ele>150</ele>
        <time>2021-10-30T15:33:06+02:00</time>
      </trkpt>
      <trkpt lat="43.47114" lon="3.72918">
        <ele>163</ele>
        <time>2021-10-30T15:33:48+02:00</time>
      </trkpt>
      <trkpt lat="43.47125" lon="3.72946">
        <ele>171</ele>
        <time>2021-10-30T15:34:13+02:00</time>
      </trkpt>
      <trkpt lat="43.47174" lon="3.73046">
        <ele>176</ele>
        <time>2021-10-30T15:36:05+02:00</time>
      </trkpt>
      <trkpt lat="43.47184" lon="3.73075">
        <ele>176</ele>
        <time>2021-10-30T15:36:49+02:00</time>
      </trkpt>
      <trkpt lat="43.47301" lon="3.73226">
        <ele>202</ele>
        <time>2021-10-30T15:40:27+02:00</time>
      </trkpt>
      <trkpt lat="43.47318" lon="3.73246">
        <ele>209</ele>
        <time>2021-10-30T15:41:33+02:00</time>
      </trkpt>
      <trkpt lat="43.47584" lon="3.73534">
        <ele>208</ele>
        <time>2021-10-30T15:46:44+02:00</time>
      </trkpt>
      <trkpt lat="43.47569" lon="3.73508">
        <ele>209</ele>
        <time>2021-10-30T15:46:47+02:00</time>
      </trkpt>
      <trkpt lat="43.47585" lon="3.73532">
        <ele>211</ele>
        <time>2021-10-30T15:47:15+02:00</time>
      </trkpt>
      <trkpt lat="43.47605" lon="3.73548">
        <ele>220</ele>
        <time>2021-10-30T15:47:35+02:00</time>
      </trkpt>
      <trkpt lat="43.47622" lon="3.73569">
        <ele>218</ele>
        <time>2021-10-30T15:48:50+02:00</time>
      </trkpt>
      <trkpt lat="43.47657" lon="3.73577">
        <ele>219</ele>
        <time>2021-10-30T15:48:51+02:00</time>
      </trkpt>
      <trkpt lat="43.47684" lon="3.73605">
        <ele>218</ele>
        <time>2021-10-30T15:48:52+02:00</time>
      </trkpt>
      <trkpt lat="43.47693" lon="3.73635">
        <ele>219</ele>
        <time>2021-10-30T15:49:00+02:00</time>
      </trkpt>
      <trkpt lat="43.47712" lon="3.73653">
        <ele>221</ele>
        <time>2021-10-30T15:49:15+02:00</time>
      </trkpt>
      <trkpt lat="43.47731" lon="3.7367">
        <ele>225</ele>
        <time>2021-10-30T15:49:33+02:00</time>
      </trkpt>
      <trkpt lat="43.47752" lon="3.73686">
        <ele>226</ele>
        <time>2021-10-30T15:49:49+02:00</time>
      </trkpt>
      <trkpt lat="43.47756" lon="3.73691">
        <ele>225</ele>
        <time>2021-10-30T15:50:07+02:00</time>
      </trkpt>
      <trkpt lat="43.47779" lon="3.73703">
        <ele>225</ele>
        <time>2021-10-30T15:50:17+02:00</time>
      </trkpt>
      <trkpt lat="43.47802" lon="3.73701">
        <ele>224</ele>
        <time>2021-10-30T15:50:37+02:00</time>
      </trkpt>
      <trkpt lat="43.47824" lon="3.73692">
        <ele>222</ele>
        <time>2021-10-30T15:50:57+02:00</time>
      </trkpt>
      <trkpt lat="43.47843" lon="3.73672">
        <ele>207</ele>
        <time>2021-10-30T15:51:25+02:00</time>
      </trkpt>
      <trkpt lat="43.4786" lon="3.73652">
        <ele>203</ele>
        <time>2021-10-30T15:51:49+02:00</time>
      </trkpt>
      <trkpt lat="43.47883" lon="3.73642">
        <ele>199</ele>
        <time>2021-10-30T15:52:07+02:00</time>
      </trkpt>
      <trkpt lat="43.47903" lon="3.73626">
        <ele>201</ele>
        <time>2021-10-30T15:52:17+02:00</time>
      </trkpt>
      <trkpt lat="43.47921" lon="3.73606">
        <ele>205</ele>
        <time>2021-10-30T15:52:35+02:00</time>
      </trkpt>
      <trkpt lat="43.47939" lon="3.73585">
        <ele>207</ele>
        <time>2021-10-30T15:52:57+02:00</time>
      </trkpt>
      <trkpt lat="43.47958" lon="3.73567">
        <ele>206</ele>
        <time>2021-10-30T15:53:15+02:00</time>
      </trkpt>
      <trkpt lat="43.47981" lon="3.73559">
        <ele>207</ele>
        <time>2021-10-30T15:53:32+02:00</time>
      </trkpt>
      <trkpt lat="43.48004" lon="3.73558">
        <ele>207</ele>
        <time>2021-10-30T15:53:49+02:00</time>
      </trkpt>
      <trkpt lat="43.48025" lon="3.73543">
        <ele>206</ele>
        <time>2021-10-30T15:54:09+02:00</time>
      </trkpt>
      <trkpt lat="43.48047" lon="3.7354">
        <ele>209</ele>
        <time>2021-10-30T15:54:26+02:00</time>
      </trkpt>
      <trkpt lat="43.48068" lon="3.73525">
        <ele>207</ele>
        <time>2021-10-30T15:54:42+02:00</time>
      </trkpt>
      <trkpt lat="43.48088" lon="3.7351">
        <ele>209</ele>
        <time>2021-10-30T15:54:58+02:00</time>
      </trkpt>
      <trkpt lat="43.4809" lon="3.73479">
        <ele>211</ele>
        <time>2021-10-30T15:55:15+02:00</time>
      </trkpt>
      <trkpt lat="43.48091" lon="3.73447">
        <ele>207</ele>
        <time>2021-10-30T15:55:40+02:00</time>
      </trkpt>
      <trkpt lat="43.48109" lon="3.73427">
        <ele>205</ele>
        <time>2021-10-30T15:56:03+02:00</time>
      </trkpt>
      <trkpt lat="43.48118" lon="3.73397">
        <ele>212</ele>
        <time>2021-10-30T15:56:18+02:00</time>
      </trkpt>
      <trkpt lat="43.48141" lon="3.73387">
        <ele>223</ele>
        <time>2021-10-30T15:56:40+02:00</time>
      </trkpt>
      <trkpt lat="43.48157" lon="3.7341">
        <ele>225</ele>
        <time>2021-10-30T15:56:57+02:00</time>
      </trkpt>
      <trkpt lat="43.48178" lon="3.73426">
        <ele>226</ele>
        <time>2021-10-30T15:57:15+02:00</time>
      </trkpt>
      <trkpt lat="43.48199" lon="3.73438">
        <ele>223</ele>
        <time>2021-10-30T15:57:33+02:00</time>
      </trkpt>
      <trkpt lat="43.48222" lon="3.73445">
        <ele>223</ele>
        <time>2021-10-30T15:57:49+02:00</time>
      </trkpt>
      <trkpt lat="43.48243" lon="3.7343">
        <ele>219</ele>
        <time>2021-10-30T15:58:10+02:00</time>
      </trkpt>
      <trkpt lat="43.48256" lon="3.73407">
        <ele>220</ele>
        <time>2021-10-30T15:58:44+02:00</time>
      </trkpt>
      <trkpt lat="43.4828" lon="3.73401">
        <ele>220</ele>
        <time>2021-10-30T15:58:49+02:00</time>
      </trkpt>
      <trkpt lat="43.48303" lon="3.73392">
        <ele>219</ele>
        <time>2021-10-30T15:59:01+02:00</time>
      </trkpt>
      <trkpt lat="43.48327" lon="3.73388">
        <ele>223</ele>
        <time>2021-10-30T15:59:18+02:00</time>
      </trkpt>
      <trkpt lat="43.4835" lon="3.7338">
        <ele>228</ele>
        <time>2021-10-30T15:59:33+02:00</time>
      </trkpt>
      <trkpt lat="43.48372" lon="3.73368">
        <ele>228</ele>
        <time>2021-10-30T15:59:53+02:00</time>
      </trkpt>
      <trkpt lat="43.48372" lon="3.73335">
        <ele>223</ele>
        <time>2021-10-30T16:00:14+02:00</time>
      </trkpt>
      <trkpt lat="43.48358" lon="3.73308">
        <ele>223</ele>
        <time>2021-10-30T16:00:33+02:00</time>
      </trkpt>
      <trkpt lat="43.48346" lon="3.73282">
        <ele>216</ele>
        <time>2021-10-30T16:00:51+02:00</time>
      </trkpt>
      <trkpt lat="43.48332" lon="3.73255">
        <ele>218</ele>
        <time>2021-10-30T16:01:08+02:00</time>
      </trkpt>
      <trkpt lat="43.48319" lon="3.73228">
        <ele>219</ele>
        <time>2021-10-30T16:01:27+02:00</time>
      </trkpt>
      <trkpt lat="43.48302" lon="3.73208">
        <ele>220</ele>
        <time>2021-10-30T16:01:43+02:00</time>
      </trkpt>
      <trkpt lat="43.48286" lon="3.73185">
        <ele>220</ele>
        <time>2021-10-30T16:02:01+02:00</time>
      </trkpt>
      <trkpt lat="43.48265" lon="3.73172">
        <ele>221</ele>
        <time>2021-10-30T16:02:29+02:00</time>
      </trkpt>
      <trkpt lat="43.48243" lon="3.73164">
        <ele>221</ele>
        <time>2021-10-30T16:02:44+02:00</time>
      </trkpt>
      <trkpt lat="43.48221" lon="3.73158">
        <ele>224</ele>
        <time>2021-10-30T16:02:59+02:00</time>
      </trkpt>
      <trkpt lat="43.48198" lon="3.73157">
        <ele>221</ele>
        <time>2021-10-30T16:03:19+02:00</time>
      </trkpt>
      <trkpt lat="43.48176" lon="3.73173">
        <ele>211</ele>
        <time>2021-10-30T16:03:40+02:00</time>
      </trkpt>
      <trkpt lat="43.48156" lon="3.7319">
        <ele>213</ele>
        <time>2021-10-30T16:03:56+02:00</time>
      </trkpt>
      <trkpt lat="43.48134" lon="3.73201">
        <ele>215</ele>
        <time>2021-10-30T16:04:11+02:00</time>
      </trkpt>
      <trkpt lat="43.48117" lon="3.73202">
        <ele>216</ele>
        <time>2021-10-30T16:04:35+02:00</time>
      </trkpt>
      <trkpt lat="43.48094" lon="3.73201">
        <ele>216</ele>
        <time>2021-10-30T16:04:47+02:00</time>
      </trkpt>
      <trkpt lat="43.4807" lon="3.73196">
        <ele>218</ele>
        <time>2021-10-30T16:05:12+02:00</time>
      </trkpt>
      <trkpt lat="43.48053" lon="3.73176">
        <ele>224</ele>
        <time>2021-10-30T16:05:28+02:00</time>
      </trkpt>
      <trkpt lat="43.48048" lon="3.73145">
        <ele>225</ele>
        <time>2021-10-30T16:05:46+02:00</time>
      </trkpt>
      <trkpt lat="43.48086" lon="3.73067">
        <ele>226</ele>
        <time>2021-10-30T16:07:29+02:00</time>
      </trkpt>
      <trkpt lat="43.48094" lon="3.73035">
        <ele>227</ele>
        <time>2021-10-30T16:07:49+02:00</time>
      </trkpt>
      <trkpt lat="43.48098" lon="3.73001">
        <ele>227</ele>
        <time>2021-10-30T16:07:58+02:00</time>
      </trkpt>
      <trkpt lat="43.48109" lon="3.72974">
        <ele>225</ele>
        <time>2021-10-30T16:08:25+02:00</time>
      </trkpt>
      <trkpt lat="43.48128" lon="3.72688">
        <ele>224</ele>
        <time>2021-10-30T16:10:52+02:00</time>
      </trkpt>
      <trkpt lat="43.4814" lon="3.72726">
        <ele>224</ele>
        <time>2021-10-30T16:10:54+02:00</time>
      </trkpt>
      <trkpt lat="43.48163" lon="3.72728">
        <ele>224</ele>
        <time>2021-10-30T16:11:21+02:00</time>
      </trkpt>
      <trkpt lat="43.4817" lon="3.72698">
        <ele>190</ele>
        <time>2021-10-30T16:12:05+02:00</time>
      </trkpt>
      <trkpt lat="43.48189" lon="3.72679">
        <ele>185</ele>
        <time>2021-10-30T16:12:24+02:00</time>
      </trkpt>
      <trkpt lat="43.48209" lon="3.72663">
        <ele>190</ele>
        <time>2021-10-30T16:12:42+02:00</time>
      </trkpt>
      <trkpt lat="43.48231" lon="3.7265">
        <ele>193</ele>
        <time>2021-10-30T16:12:58+02:00</time>
      </trkpt>
      <trkpt lat="43.48253" lon="3.72644">
        <ele>191</ele>
        <time>2021-10-30T16:13:13+02:00</time>
      </trkpt>
      <trkpt lat="43.48275" lon="3.72632">
        <ele>185</ele>
        <time>2021-10-30T16:13:41+02:00</time>
      </trkpt>
      <trkpt lat="43.4829" lon="3.72607">
        <ele>187</ele>
        <time>2021-10-30T16:13:55+02:00</time>
      </trkpt>
      <trkpt lat="43.48311" lon="3.72592">
        <ele>187</ele>
        <time>2021-10-30T16:14:10+02:00</time>
      </trkpt>
      <trkpt lat="43.48329" lon="3.72554">
        <ele>185</ele>
        <time>2021-10-30T16:16:22+02:00</time>
      </trkpt>
      <trkpt lat="43.4834" lon="3.72527">
        <ele>185</ele>
        <time>2021-10-30T16:16:23+02:00</time>
      </trkpt>
      <trkpt lat="43.48349" lon="3.72495">
        <ele>187</ele>
        <time>2021-10-30T16:16:27+02:00</time>
      </trkpt>
      <trkpt lat="43.48362" lon="3.72467">
        <ele>185</ele>
        <time>2021-10-30T16:16:44+02:00</time>
      </trkpt>
      <trkpt lat="43.48371" lon="3.72438">
        <ele>177</ele>
        <time>2021-10-30T16:17:19+02:00</time>
      </trkpt>
      <trkpt lat="43.48374" lon="3.72406">
        <ele>182</ele>
        <time>2021-10-30T16:17:32+02:00</time>
      </trkpt>
      <trkpt lat="43.48369" lon="3.72375">
        <ele>182</ele>
        <time>2021-10-30T16:17:48+02:00</time>
      </trkpt>
      <trkpt lat="43.48229" lon="3.72128">
        <ele>177</ele>
        <time>2021-10-30T16:20:53+02:00</time>
      </trkpt>
      <trkpt lat="43.48202" lon="3.72113">
        <ele>179</ele>
        <time>2021-10-30T16:20:54+02:00</time>
      </trkpt>
      <trkpt lat="43.48193" lon="3.72083">
        <ele>179</ele>
        <time>2021-10-30T16:21:09+02:00</time>
      </trkpt>
      <trkpt lat="43.48174" lon="3.72063">
        <ele>180</ele>
        <time>2021-10-30T16:21:20+02:00</time>
      </trkpt>
      <trkpt lat="43.48156" lon="3.72042">
        <ele>181</ele>
        <time>2021-10-30T16:21:30+02:00</time>
      </trkpt>
      <trkpt lat="43.48136" lon="3.72025">
        <ele>173</ele>
        <time>2021-10-30T16:21:48+02:00</time>
      </trkpt>
      <trkpt lat="43.48132" lon="3.71973">
        <ele>166</ele>
        <time>2021-10-30T16:23:17+02:00</time>
      </trkpt>
      <trkpt lat="43.48076" lon="3.71891">
        <ele>166</ele>
        <time>2021-10-30T16:23:18+02:00</time>
      </trkpt>
      <trkpt lat="43.48076" lon="3.71858">
        <ele>154</ele>
        <time>2021-10-30T16:23:39+02:00</time>
      </trkpt>
      <trkpt lat="43.48067" lon="3.71829">
        <ele>142</ele>
        <time>2021-10-30T16:23:53+02:00</time>
      </trkpt>
      <trkpt lat="43.48061" lon="3.71798">
        <ele>132</ele>
        <time>2021-10-30T16:24:07+02:00</time>
      </trkpt>
      <trkpt lat="43.47864" lon="3.71566">
        <ele>102</ele>
        <time>2021-10-30T16:27:31+02:00</time>
      </trkpt>
      <trkpt lat="43.47847" lon="3.71543">
        <ele>99</ele>
        <time>2021-10-30T16:27:47+02:00</time>
      </trkpt>
      <trkpt lat="43.47824" lon="3.71539">
        <ele>89</ele>
        <time>2021-10-30T16:28:01+02:00</time>
      </trkpt>
      <trkpt lat="43.47804" lon="3.71522">
        <ele>83</ele>
        <time>2021-10-30T16:28:23+02:00</time>
      </trkpt>
      <trkpt lat="43.47786" lon="3.71502">
        <ele>80</ele>
        <time>2021-10-30T16:28:41+02:00</time>
      </trkpt>
      <trkpt lat="43.47737" lon="3.7144">
        <ele>69</ele>
        <time>2021-10-30T16:29:36+02:00</time>
      </trkpt>
      <trkpt lat="43.47749" lon="3.7141">
        <ele>64</ele>
        <time>2021-10-30T16:30:01+02:00</time>
      </trkpt>
      <trkpt lat="43.47759" lon="3.71383">
        <ele>62</ele>
        <time>2021-10-30T16:30:18+02:00</time>
      </trkpt>
      <trkpt lat="43.47769" lon="3.71354">
        <ele>62</ele>
        <time>2021-10-30T16:30:30+02:00</time>
      </trkpt>
      <trkpt lat="43.4778" lon="3.71326">
        <ele>69</ele>
        <time>2021-10-30T16:30:45+02:00</time>
      </trkpt>
      <trkpt lat="43.4779" lon="3.71297">
        <ele>74</ele>
        <time>2021-10-30T16:31:02+02:00</time>
      </trkpt>
      <trkpt lat="43.47805" lon="3.71231">
        <ele>55</ele>
        <time>2021-10-30T16:31:42+02:00</time>
      </trkpt>
      <trkpt lat="43.47814" lon="3.71202">
        <ele>51</ele>
        <time>2021-10-30T16:31:59+02:00</time>
      </trkpt>
      <trkpt lat="43.47823" lon="3.71173">
        <ele>49</ele>
        <time>2021-10-30T16:32:16+02:00</time>
      </trkpt>
      <trkpt lat="43.4783" lon="3.71142">
        <ele>48</ele>
        <time>2021-10-30T16:32:34+02:00</time>
      </trkpt>
      <trkpt lat="43.47829" lon="3.71109">
        <ele>51</ele>
        <time>2021-10-30T16:32:47+02:00</time>
      </trkpt>
      <trkpt lat="43.47828" lon="3.71077">
        <ele>56</ele>
        <time>2021-10-30T16:33:02+02:00</time>
      </trkpt>
      <trkpt lat="43.47824" lon="3.71045">
        <ele>60</ele>
        <time>2021-10-30T16:33:18+02:00</time>
      </trkpt>
      <trkpt lat="43.47823" lon="3.70989">
        <ele>47</ele>
        <time>2021-10-30T16:33:53+02:00</time>
      </trkpt>
      <trkpt lat="43.47816" lon="3.70958">
        <ele>43</ele>
        <time>2021-10-30T16:34:10+02:00</time>
      </trkpt>
      <trkpt lat="43.47805" lon="3.70931">
        <ele>39</ele>
        <time>2021-10-30T16:34:24+02:00</time>
      </trkpt>
      <trkpt lat="43.47782" lon="3.70934">
        <ele>41</ele>
        <time>2021-10-30T16:34:44+02:00</time>
      </trkpt>
      <trkpt lat="43.47762" lon="3.70953">
        <ele>50</ele>
        <time>2021-10-30T16:35:00+02:00</time>
      </trkpt>
      <trkpt lat="43.47745" lon="3.70976">
        <ele>55</ele>
        <time>2021-10-30T16:35:18+02:00</time>
      </trkpt>
      <trkpt lat="43.47736" lon="3.70978">
        <ele>59</ele>
        <time>2021-10-30T16:36:46+02:00</time>
      </trkpt>
      <trkpt lat="43.4771" lon="3.70988">
        <ele>59</ele>
        <time>2021-10-30T16:36:49+02:00</time>
      </trkpt>
      <trkpt lat="43.47688" lon="3.70987">
        <ele>59</ele>
        <time>2021-10-30T16:36:55+02:00</time>
      </trkpt>
      <trkpt lat="43.47674" lon="3.70956">
        <ele>59</ele>
        <time>2021-10-30T16:36:58+02:00</time>
      </trkpt>
      <trkpt lat="43.47656" lon="3.70928">
        <ele>58</ele>
        <time>2021-10-30T16:37:04+02:00</time>
      </trkpt>
      <trkpt lat="43.47646" lon="3.70898">
        <ele>57</ele>
        <time>2021-10-30T16:37:14+02:00</time>
      </trkpt>
      <trkpt lat="43.47659" lon="3.7087">
        <ele>55</ele>
        <time>2021-10-30T16:37:29+02:00</time>
      </trkpt>
      <trkpt lat="43.4767" lon="3.70841">
        <ele>58</ele>
        <time>2021-10-30T16:37:42+02:00</time>
      </trkpt>
      <trkpt lat="43.47674" lon="3.7081">
        <ele>58</ele>
        <time>2021-10-30T16:38:04+02:00</time>
      </trkpt>
      <trkpt lat="43.477" lon="3.7076">
        <ele>58</ele>
        <time>2021-10-30T16:38:53+02:00</time>
      </trkpt>
      <trkpt lat="43.4772" lon="3.70744">
        <ele>58</ele>
        <time>2021-10-30T16:38:54+02:00</time>
      </trkpt>
      <trkpt lat="43.47741" lon="3.70731">
        <ele>48</ele>
        <time>2021-10-30T16:39:13+02:00</time>
      </trkpt>
      <trkpt lat="43.47735" lon="3.70698">
        <ele>41</ele>
        <time>2021-10-30T16:39:30+02:00</time>
      </trkpt>
      <trkpt lat="43.47725" lon="3.70669">
        <ele>35</ele>
        <time>2021-10-30T16:39:46+02:00</time>
      </trkpt>
      <trkpt lat="43.47721" lon="3.70638">
        <ele>34</ele>
        <time>2021-10-30T16:40:02+02:00</time>
      </trkpt>
      <trkpt lat="43.47714" lon="3.70607">
        <ele>39</ele>
        <time>2021-10-30T16:40:18+02:00</time>
      </trkpt>
      <trkpt lat="43.47696" lon="3.70586">
        <ele>40</ele>
        <time>2021-10-30T16:40:35+02:00</time>
      </trkpt>
      <trkpt lat="43.47672" lon="3.70416">
        <ele>41</ele>
        <time>2021-10-30T16:43:29+02:00</time>
      </trkpt>
      <trkpt lat="43.47608" lon="3.70199">
        <ele>42</ele>
        <time>2021-10-30T16:43:29+02:00</time>
      </trkpt>
      <trkpt lat="43.47629" lon="3.7022">
        <ele>42</ele>
        <time>2021-10-30T16:43:34+02:00</time>
      </trkpt>
      <trkpt lat="43.47715" lon="3.70302">
        <ele>41</ele>
        <time>2021-10-30T16:43:37+02:00</time>
      </trkpt>
      <trkpt lat="43.47725" lon="3.70273">
        <ele>39</ele>
        <time>2021-10-30T16:43:53+02:00</time>
      </trkpt>
      <trkpt lat="43.47735" lon="3.70244">
        <ele>34</ele>
        <time>2021-10-30T16:44:09+02:00</time>
      </trkpt>
      <trkpt lat="43.47743" lon="3.70214">
        <ele>20</ele>
        <time>2021-10-30T16:44:26+02:00</time>
      </trkpt>
      <trkpt lat="43.47746" lon="3.70184">
        <ele>15</ele>
        <time>2021-10-30T16:44:44+02:00</time>
      </trkpt>
      <trkpt lat="43.47747" lon="3.70152">
        <ele>18</ele>
        <time>2021-10-30T16:44:58+02:00</time>
      </trkpt>
      <trkpt lat="43.47758" lon="3.70124">
        <ele>23</ele>
        <time>2021-10-30T16:45:14+02:00</time>
      </trkpt>
      <trkpt lat="43.47763" lon="3.70092">
        <ele>21</ele>
        <time>2021-10-30T16:45:32+02:00</time>
      </trkpt>
      <trkpt lat="43.47761" lon="3.70059">
        <ele>6</ele>
        <time>2021-10-30T16:45:48+02:00</time>
      </trkpt>
      <trkpt lat="43.47758" lon="3.70026">
        <ele>7</ele>
        <time>2021-10-30T16:46:06+02:00</time>
      </trkpt>
      <trkpt lat="43.47758" lon="3.69995">
        <ele>9</ele>
        <time>2021-10-30T16:46:22+02:00</time>
      </trkpt>
      <trkpt lat="43.47769" lon="3.69966">
        <ele>10</ele>
        <time>2021-10-30T16:46:37+02:00</time>
      </trkpt>
      <trkpt lat="43.47776" lon="3.69935">
        <ele>11</ele>
        <time>2021-10-30T16:46:52+02:00</time>
      </trkpt>
      <trkpt lat="43.47785" lon="3.69907">
        <ele>10</ele>
        <time>2021-10-30T16:47:09+02:00</time>
      </trkpt>
      <trkpt lat="43.47796" lon="3.69878">
        <ele>10</ele>
        <time>2021-10-30T16:47:25+02:00</time>
      </trkpt>
      <trkpt lat="43.47808" lon="3.69851">
        <ele>6</ele>
        <time>2021-10-30T16:47:42+02:00</time>
      </trkpt>
      <trkpt lat="43.47831" lon="3.69858">
        <ele>7</ele>
        <time>2021-10-30T16:47:59+02:00</time>
      </trkpt>
      <trkpt lat="43.47854" lon="3.69855">
        <ele>9</ele>
        <time>2021-10-30T16:48:15+02:00</time>
      </trkpt>
    </trkseg>
  </trk>
</gpx>